Pagrindinis puslapis
METAR-TAF:

METAR-TAF

Oro uostai :

Stokholmas, Švedija

platuma: 59-21N, ilguma: 017-57E, Aukštis: 14 m

Dabartinis oras

Ataskaita buvo paskelbta 37 minutes, ne 06:20 UTC
Vėjas 5 kt iš Vakarų/Šiaurės Vakarų
Temperatūra 3°C
Drėgmė 65%
Slėgis 1023 hPa
Matomumas 10 km arba daugiau
nėra debesų žemiau 1500 m ir nėra kamuolinių lietaus debesų

METAR: ESSB 100620Z 29005KT CAVOK 03/M03 Q1023

Laikas: 08:57 (06:57 UTC)

Prognozė

Ataskaita buvo paskelbta 55 minutes, ne 06:02 UTC
Prognozė galioja nuo 10 metu 06 UTC su 10 metu 15 UTC
Vėjas 6 kt iš Vakarų/Šiaurės Vakarų
Matomumas 10 km arba daugiau
nėra debesų žemiau 1500 m ir nėra kamuolinių lietaus debesų
Laikinai
nuo 10 metu 10 UTC su 10 metu 15 UTC
Išsisklaidę debesys ne aukštis 6000 ft, aukštai iškilę kamuoliniai debesys.

TAF: ESSB 100602Z 1006/1015 29006KT CAVOK TEMPO 1010/1015 SCT060TCU

Orai ataskaitas ir orų prognozės (METAR, TAF).

turimą stotys yra geltonos ir raudonos taškus žemėlapyje.

Perkelti pele per norėdami pamatyti stoties vardą.

Tada spustelėkite, norėdami matyti oro stebėjimo ir prognozės.

Norėdami pakeisti žemėlapį: spustelėkite ant žalios mygtukų su juodo kryžiaus žemyn,; žalią mygtuką su brūkšneliu, jei norite nutolinti; arba žalių rodyklių gretimoms žemėlapius.


METAR-TAF: